EGNH

Blackpool International Airport

Blackpool, United Kingdom
METAR EGNH 171950Z 34008KT 9999 SCT021 12/08 Q1025
Observed Flight Rules
Oct-17 @ 19:50 UTC (5 hours ago) Visual Flight Rules
Wind Visibility Clouds
340° at 8 knots 10,000+ meters
  • Scattered at 2,100' AGL
Temperatures Readings
Current 12°C / 54°F
Dewpoint 8°C / 46°F
Humidity 77%
Altimeter 30.27" Hg
Pressure 1025 hPa
Elevation 10
METAR EGNH 171950Z 34008KT 9999 SCT021 12/08 Q1025
Observed Flight Rules
Oct-17 @ 19:50 UTC
(5 hours ago)
VFR
Wind Visibility
340° at 8 knots 10,000+ meters
Clouds
  • Scattered at 2,100' AGL
Temperature Dewpoint
12°C / 54°F 8°C / 46°F
Humidity Altimeter Pressure
77% 30.27" Hg 1025 hPa